»·PEaware :: DAL102 KSAN-KSFO

DAL102 :: KSAN-KSFO

FLIGHT INFORMATION

Flight Status: Arrived
Operator:
Delta Air Lines
More flights by this operator :: More flights under this callsign
Pilot: Cole F. (14495)
Aircraft: BOEING 737-200
(B732)
More flights by this aircraft type
Origin: KSAN San Diego Intl-Lindbergh
United States
Destination: KSFO San Francisco Intl
United States
More flights between these airports :: More routes between these airports
Route: +PEBLE6 SXC RZS BSR BSR3
File this flight plan on PilotEdge
Remarks:
Altitude:
(Current/Filed)
28,000ft
Speed:
(Current/Filed)
444kts
Departed: 18-Jan-18 12:15 PM
Arrived: 18-Jan-18 01:29 PM
Distance/Time
Traveled:
388nm/1:14
Distance/Time
To Go:
Arrived

Flight Plot

Page will automatically refresh every two minutes.

Flight plan parsing failed; only flown route is shown


Map Options




Map Legend


Flown Route
Filed Route
Departure Airport
Arrival Airport
Navaid (VOR, NDB)
Fix

Horizontal Profiles

Position Reports

Time Latitude Longitude Heading Altitude Ground
Speed
18-Jan-18 11:47 32.732908 -117.204585 112 26ft 0kts
18-Jan-18 11:48 32.732908 -117.204585 112 26ft 0kts
18-Jan-18 11:49 32.732908 -117.204585 112 26ft 0kts
18-Jan-18 11:50 32.732908 -117.204586 112 26ft 0kts
18-Jan-18 11:51 32.732908 -117.204586 112 26ft 0kts
18-Jan-18 11:52 32.732908 -117.204586 112 26ft 0kts
18-Jan-18 11:53 32.732908 -117.204586 112 26ft 0kts
18-Jan-18 11:54 32.732908 -117.204586 112 26ft 0kts
18-Jan-18 11:55 32.732908 -117.204586 112 26ft 0kts
18-Jan-18 11:56 32.732908 -117.204586 112 26ft 0kts
18-Jan-18 11:57 32.732938 -117.204668 112 26ft 2kts
18-Jan-18 11:58 32.733167 -117.205325 112 26ft 2kts
18-Jan-18 11:59 32.733243 -117.205754 28 26ft 0kts
18-Jan-18 12:00 32.733179 -117.205779 22 26ft 0kts
18-Jan-18 12:01 32.733179 -117.205779 22 26ft 0kts
18-Jan-18 12:02 32.733179 -117.205779 22 26ft 0kts
18-Jan-18 12:03 32.733592 -117.205643 8 26ft 9kts
18-Jan-18 12:04 32.734434 -117.205549 3 26ft 0kts
18-Jan-18 12:05 32.734434 -117.205549 3 26ft 0kts
18-Jan-18 12:06 32.734434 -117.205549 3 26ft 0kts
18-Jan-18 12:07 32.734434 -117.205549 3 26ft 0kts
18-Jan-18 12:08 32.735717 -117.202851 106 26ft 13kts
18-Jan-18 12:09 32.734631 -117.198384 105 26ft 14kts
18-Jan-18 12:10 32.733529 -117.193803 105 26ft 15kts
18-Jan-18 12:11 32.732313 -117.188807 106 26ft 15kts
18-Jan-18 12:12 32.731152 -117.184010 106 26ft 14kts
18-Jan-18 12:13 32.730059 -117.179524 106 26ft 13kts
18-Jan-18 12:14 32.729508 -117.176714 70 26ft 0kts
18-Jan-18 12:15 32.729508 -117.176714 70 26ft 0kts
18-Jan-18 12:16 32.729508 -117.176714 70 26ft 0kts
18-Jan-18 12:17 32.729508 -117.176714 70 26ft 0kts
18-Jan-18 12:18 32.729508 -117.176714 70 26ft 0kts
18-Jan-18 12:19 32.729508 -117.176714 70 26ft 0kts
18-Jan-18 12:20 32.730246 -117.176042 287 26ft 0kts
18-Jan-18 12:21 32.731459 -117.181148 286 26ft 93kts
18-Jan-18 12:22 32.750673 -117.233602 304 1543ft 220kts
18-Jan-18 12:23 32.788951 -117.298521 306 4530ft 246kts
18-Jan-18 12:24 32.831987 -117.371828 304 7206ft 272kts
18-Jan-18 12:25 32.875752 -117.446444 304 9766ft 278kts
18-Jan-18 12:26 32.942128 -117.505683 329 11097ft 325kts
18-Jan-18 12:27 33.012139 -117.570028 303 13205ft 323kts
18-Jan-18 12:28 33.065251 -117.657215 303 14904ft 334kts
18-Jan-18 12:29 33.117520 -117.742219 303 16647ft 337kts
18-Jan-18 12:30 33.173431 -117.831642 303 18333ft 348kts
18-Jan-18 12:31 33.247357 -117.902953 340 19825ft 373kts
18-Jan-18 12:32 33.295208 -117.997590 280 21119ft 359kts
18-Jan-18 12:33 33.310748 -118.116260 271 22243ft 370kts
18-Jan-18 12:34 33.323540 -118.237080 286 23609ft 374kts
18-Jan-18 12:35 33.358086 -118.354603 290 24684ft 381kts
18-Jan-18 12:36 33.402436 -118.470743 298 25746ft 389kts
18-Jan-18 12:37 33.448585 -118.563613 298 26542ft 393kts
18-Jan-18 12:38 33.520386 -118.684587 320 27495ft 406kts
18-Jan-18 12:39 33.593922 -118.754930 315 27966ft 412kts
18-Jan-18 12:40 33.679910 -118.846598 314 27939ft 417kts
18-Jan-18 12:41 33.780018 -118.956308 314 27938ft 418kts
18-Jan-18 12:42 33.851310 -119.034970 314 27963ft 418kts
18-Jan-18 12:43 33.936456 -119.129211 313 27964ft 418kts
18-Jan-18 12:44 34.016087 -119.217602 313 27955ft 418kts
18-Jan-18 12:45 34.100530 -119.311565 313 28124ft 407kts
18-Jan-18 12:46 34.178819 -119.397825 313 28125ft 398kts
18-Jan-18 12:47 34.260242 -119.488743 313 28127ft 403kts
18-Jan-18 12:48 34.342867 -119.581537 313 28127ft 409kts
18-Jan-18 12:49 34.423469 -119.672992 311 28136ft 417kts
18-Jan-18 12:50 34.508596 -119.770327 312 28134ft 426kts
18-Jan-18 12:51 34.610004 -119.849877 324 28134ft 440kts
18-Jan-18 12:52 34.715573 -119.924947 324 28134ft 444kts
18-Jan-18 12:53 34.822470 -120.000472 324 28131ft 445kts
18-Jan-18 12:54 34.929769 -120.075717 324 28158ft 447kts
18-Jan-18 12:55 35.018129 -120.174051 298 28158ft 429kts
18-Jan-18 12:56 35.075175 -120.300853 292 28156ft 428kts
18-Jan-18 12:57 35.124066 -120.416450 294 28151ft 430kts
18-Jan-18 12:58 35.203668 -120.528054 307 28145ft 444kts
18-Jan-18 12:59 35.272283 -120.645945 298 28122ft 430kts
18-Jan-18 13:00 35.372790 -120.732900 313 28162ft 451kts
18-Jan-18 13:01 35.468021 -120.830687 308 28132ft 446kts
18-Jan-18 13:02 35.559871 -120.932824 308 28131ft 446kts
18-Jan-18 13:03 35.651276 -121.035903 308 28130ft 447kts
18-Jan-18 13:04 35.742314 -121.139071 307 28128ft 444kts
18-Jan-18 13:05 35.832354 -121.241481 307 28128ft 439kts
18-Jan-18 13:06 35.921481 -121.343202 307 28128ft 436kts
18-Jan-18 13:07 36.010021 -121.444589 307 27990ft 437kts
18-Jan-18 13:08 36.098540 -121.546431 307 27033ft 430kts
18-Jan-18 13:09 36.178663 -121.637504 307 25979ft 411kts
18-Jan-18 13:10 36.276685 -121.711902 322 24815ft 415kts
18-Jan-18 13:11 36.377245 -121.777227 322 23642ft 404kts
18-Jan-18 13:12 36.475591 -121.840860 322 22429ft 394kts
18-Jan-18 13:13 36.573493 -121.898534 324 20913ft 392kts
18-Jan-18 13:14 36.678589 -121.942601 336 19051ft 402kts
18-Jan-18 13:15 36.786528 -121.973882 339 17161ft 398kts
18-Jan-18 13:16 36.889569 -122.001325 339 15068ft 358kts
18-Jan-18 13:17 36.983835 -122.026219 339 13370ft 334kts
18-Jan-18 13:18 37.073056 -122.049800 340 11728ft 328kts
18-Jan-18 13:19 37.146579 -122.069116 341 10480ft 320kts
18-Jan-18 13:20 37.229671 -122.088170 2 9853ft 291kts
18-Jan-18 13:21 37.295173 -122.031074 43 8643ft 285kts
18-Jan-18 13:22 37.352335 -121.967303 43 7947ft 262kts
18-Jan-18 13:23 37.416826 -121.957907 343 7503ft 239kts
18-Jan-18 13:24 37.467553 -122.007083 293 6526ft 232kts
18-Jan-18 13:25 37.496050 -122.081566 297 5023ft 234kts
18-Jan-18 13:26 37.472926 -122.131783 202 4988ft 190kts
18-Jan-18 13:27 37.422132 -122.114464 116 4632ft 233kts
18-Jan-18 13:28 37.442762 -122.057112 352 4023ft 216kts
18-Jan-18 13:29 37.495972 -122.096827 323 3970ft 213kts
18-Jan-18 13:30 37.525974 -122.153324 294 3635ft 196kts
18-Jan-18 13:31 37.550293 -122.212386 295 2626ft 173kts
18-Jan-18 13:32 37.569731 -122.258542 294 1825ft 142kts
18-Jan-18 13:33 37.589019 -122.304191 295 1015ft 148kts
18-Jan-18 13:34 37.607766 -122.348462 291 260ft 135kts
18-Jan-18 13:35 37.619012 -122.376502 270 22ft 20kts
18-Jan-18 13:36 37.617746 -122.379507 176 22ft 12kts
18-Jan-18 13:37 37.615123 -122.381659 263 22ft 9kts

Navigation Log

Ident Type
Flight plan parsing failed, navigation log unavailable